createdAt,value
2023-03-03T00:01:13.207Z,9.45
2023-03-03T00:03:41.054Z,11.15
2023-03-03T00:06:14.542Z,13.20
2023-03-03T00:08:44.155Z,14.80
2023-03-03T00:11:12.167Z,13.20
2023-03-03T00:13:55.382Z,13.77
2023-03-03T00:16:28.431Z,17.92
2023-03-03T00:18:57.005Z,17.00
2023-03-03T00:21:26.564Z,18.23
2023-03-03T00:23:55.175Z,15.40
2023-03-03T00:26:31.042Z,11.27
2023-03-03T00:28:59.312Z,11.13
2023-03-03T00:31:36.504Z,10.57
2023-03-03T00:34:16.913Z,13.90
2023-03-03T00:36:45.672Z,10.40
2023-03-03T00:39:19.190Z,10.85
2023-03-03T00:41:47.258Z,9.80
2023-03-03T00:44:40.615Z,11.55
2023-03-03T00:47:38.871Z,9.70
2023-03-03T00:50:06.792Z,15.75
2023-03-03T00:52:39.945Z,14.18
2023-03-03T00:55:08.745Z,11.63
2023-03-03T00:57:36.311Z,10.85
2023-03-03T01:00:07.263Z,10.63
2023-03-03T01:02:35.291Z,13.18
2023-03-03T01:05:02.869Z,9.43
2023-03-03T01:07:30.464Z,12.43
2023-03-03T01:09:58.117Z,10.15
2023-03-03T01:12:25.988Z,11.25
2023-03-03T01:14:55.452Z,12.43
2023-03-03T01:17:23.210Z,16.38
2023-03-03T01:19:51.069Z,12.10
2023-03-03T01:22:18.803Z,12.43
2023-03-03T01:24:46.438Z,13.70
2023-03-03T01:27:13.819Z,15.27
2023-03-03T01:29:41.313Z,12.00
2023-03-03T01:32:09.044Z,16.27
2023-03-03T01:34:36.641Z,12.13
2023-03-03T01:37:04.122Z,11.77
2023-03-03T01:39:31.641Z,14.68
2023-03-03T01:41:59.293Z,16.80
2023-03-03T01:44:27.042Z,14.10
2023-03-03T01:47:28.937Z,10.32
2023-03-03T01:50:03.564Z,12.32
2023-03-03T01:52:35.860Z,14.90
2023-03-03T01:55:26.199Z,14.75
2023-03-03T01:58:01.489Z,15.38
2023-03-03T02:00:31.714Z,11.25
2023-03-03T02:02:59.531Z,17.95
2023-03-03T02:05:28.103Z,14.98
2023-03-03T02:07:55.922Z,13.70
2023-03-03T02:10:23.791Z,13.48
2023-03-03T02:12:58.522Z,13.90
2023-03-03T02:15:38.095Z,17.50
2023-03-03T02:18:10.507Z,17.65
2023-03-03T02:21:00.000Z,11.20
2023-03-03T02:23:49.505Z,13.68
2023-03-03T02:26:28.864Z,16.60
2023-03-03T02:29:01.821Z,13.77
2023-03-03T02:31:31.826Z,17.70
2023-03-03T02:34:00.767Z,11.88
2023-03-03T02:36:31.655Z,13.35
2023-03-03T02:39:11.956Z,11.77
2023-03-03T02:42:02.013Z,15.38
2023-03-03T02:44:37.187Z,17.23
2023-03-03T02:47:05.137Z,17.13
2023-03-03T02:49:35.927Z,12.60
2023-03-03T02:52:09.885Z,14.82
2023-03-03T02:54:39.545Z,14.10
2023-03-03T02:57:09.024Z,15.80
2023-03-03T02:59:36.712Z,15.30
2023-03-03T03:02:12.022Z,15.77
2023-03-03T03:04:39.693Z,14.98
2023-03-03T03:07:07.489Z,12.40
2023-03-03T03:09:37.646Z,16.02
2023-03-03T03:12:05.521Z,14.27
2023-03-03T03:14:36.260Z,17.02
2023-03-03T03:17:06.164Z,13.68
2023-03-03T03:19:33.975Z,15.73
2023-03-03T03:22:03.506Z,15.50
2023-03-03T03:24:34.580Z,13.68
2023-03-03T03:27:05.846Z,16.55
2023-03-03T03:29:34.033Z,18.00
2023-03-03T03:32:01.981Z,14.82
2023-03-03T03:34:29.779Z,14.98
2023-03-03T03:36:58.028Z,15.48
2023-03-03T03:39:28.298Z,17.92
2023-03-03T03:41:56.969Z,16.67
2023-03-03T03:44:25.293Z,16.95
2023-03-03T03:46:53.523Z,15.88
2023-03-03T03:49:21.809Z,20.20
2023-03-03T03:51:51.517Z,13.15
2023-03-03T03:54:22.144Z,14.77
2023-03-03T03:56:51.082Z,15.35
2023-03-03T03:59:19.037Z,15.15
2023-03-03T04:01:48.240Z,14.73
2023-03-03T04:04:17.017Z,14.57
2023-03-03T04:06:44.861Z,14.63
2023-03-03T04:09:13.173Z,10.95
2023-03-03T04:11:41.055Z,14.65
2023-03-03T04:14:10.483Z,16.17
2023-03-03T04:16:38.610Z,12.43
2023-03-03T04:19:06.653Z,14.30
2023-03-03T04:21:36.791Z,18.20
2023-03-03T04:24:04.938Z,12.65
2023-03-03T04:26:33.335Z,14.75
2023-03-03T04:29:03.224Z,12.10
2023-03-03T04:31:31.317Z,16.52
2023-03-03T04:33:59.562Z,19.42
2023-03-03T04:36:28.237Z,11.95
2023-03-03T04:38:56.250Z,13.88
2023-03-03T04:41:24.444Z,13.20
2023-03-03T04:43:52.115Z,13.23
2023-03-03T04:46:20.341Z,12.02
2023-03-03T04:48:48.562Z,11.77
2023-03-03T04:51:16.964Z,11.63
2023-03-03T04:53:46.404Z,14.45
2023-03-03T04:56:15.290Z,13.23
2023-03-03T04:58:43.070Z,13.88
2023-03-03T05:01:14.670Z,13.55
2023-03-03T05:03:43.106Z,11.52
2023-03-03T05:06:10.801Z,16.20
2023-03-03T05:08:43.192Z,14.70
2023-03-03T05:11:10.683Z,12.68
2023-03-03T05:13:38.205Z,13.05
2023-03-03T05:16:06.007Z,14.23
2023-03-03T05:18:33.537Z,14.48
2023-03-03T05:21:01.572Z,11.10
2023-03-03T05:23:29.070Z,9.32
2023-03-03T05:25:56.645Z,11.13
2023-03-03T05:28:24.049Z,12.45
2023-03-03T05:30:51.580Z,10.35
2023-03-03T05:33:19.251Z,11.70
2023-03-03T05:35:46.730Z,10.68
2023-03-03T05:38:14.250Z,14.60
2023-03-03T05:40:41.705Z,11.77
2023-03-03T05:43:09.336Z,10.48
2023-03-03T05:45:36.795Z,10.65
2023-03-03T05:48:04.918Z,15.65
2023-03-03T05:50:32.821Z,14.00
2023-03-03T05:53:00.461Z,7.95
2023-03-03T05:55:28.111Z,10.55
2023-03-03T05:57:56.195Z,9.82
2023-03-03T06:00:24.028Z,11.80
2023-03-03T06:02:51.822Z,9.90
2023-03-03T06:05:19.455Z,11.32
2023-03-03T06:07:47.050Z,9.48
2023-03-03T06:10:14.843Z,10.00
2023-03-03T06:12:46.269Z,10.38
2023-03-03T06:15:13.841Z,14.05
2023-03-03T06:17:41.372Z,8.63
2023-03-03T06:20:10.064Z,14.25
2023-03-03T06:22:38.118Z,11.02
2023-03-03T06:25:06.212Z,10.23
2023-03-03T06:27:34.510Z,10.55
2023-03-03T06:30:02.217Z,12.25
2023-03-03T06:32:29.798Z,9.55
2023-03-03T06:34:57.472Z,13.52
2023-03-03T06:37:25.188Z,10.10
2023-03-03T06:39:53.198Z,10.40
2023-03-03T06:42:21.401Z,10.95
2023-03-03T06:44:49.127Z,8.57
2023-03-03T06:47:16.934Z,10.57
2023-03-03T06:49:44.585Z,9.60
2023-03-03T06:52:14.516Z,11.13
2023-03-03T06:54:43.152Z,11.35
2023-03-03T06:57:32.271Z,14.48
2023-03-03T07:00:25.296Z,10.57
2023-03-03T07:03:08.173Z,8.68
2023-03-03T07:05:35.614Z,17.33
2023-03-03T07:08:07.209Z,11.20
2023-03-03T07:10:34.629Z,13.05
2023-03-03T07:13:23.536Z,10.90
2023-03-03T07:15:53.342Z,8.10
2023-03-03T07:18:29.832Z,9.52
2023-03-03T07:20:57.658Z,17.88
2023-03-03T07:23:28.593Z,12.60
2023-03-03T07:28:29.266Z,9.20
2023-03-03T07:30:58.324Z,13.75
2023-03-03T07:33:28.725Z,13.05
2023-03-03T07:35:58.811Z,12.05
2023-03-03T07:38:33.982Z,10.10
2023-03-03T07:41:05.247Z,8.93
2023-03-03T07:43:43.578Z,9.45
2023-03-03T07:46:11.245Z,9.65
2023-03-03T07:48:41.917Z,11.77
2023-03-03T07:51:22.473Z,11.65
2023-03-03T07:53:50.004Z,10.55
2023-03-03T07:56:35.971Z,8.35
2023-03-03T07:59:25.038Z,12.20
2023-03-03T08:01:56.534Z,16.25
2023-03-03T08:04:40.855Z,11.90
2023-03-03T08:07:21.767Z,8.63
2023-03-03T08:09:58.618Z,10.98
2023-03-03T08:12:37.473Z,12.23
2023-03-03T08:15:24.977Z,13.25
2023-03-03T08:17:54.933Z,13.90
2023-03-03T08:20:52.727Z,14.73
2023-03-03T08:23:21.268Z,14.07
2023-03-03T08:25:50.249Z,12.85
2023-03-03T08:28:18.096Z,16.83
2023-03-03T08:30:46.884Z,13.45
2023-03-03T08:33:14.613Z,11.38
2023-03-03T08:35:42.880Z,9.82
2023-03-03T08:38:11.958Z,15.57
2023-03-03T08:40:39.481Z,15.70
2023-03-03T08:43:07.419Z,10.68
2023-03-03T08:45:36.125Z,12.15
2023-03-03T08:48:06.013Z,13.07
2023-03-03T08:50:34.045Z,11.38
2023-03-03T08:53:01.756Z,20.05
2023-03-03T08:55:29.184Z,12.90
2023-03-03T08:57:56.856Z,11.48
2023-03-03T09:00:24.783Z,17.73
2023-03-03T09:02:53.410Z,12.13
2023-03-03T09:05:22.156Z,17.15
2023-03-03T09:07:51.452Z,11.90
2023-03-03T09:10:27.579Z,13.77
2023-03-03T09:12:58.356Z,12.00
2023-03-03T09:15:27.744Z,8.35
2023-03-03T09:17:59.192Z,16.23
2023-03-03T09:20:45.541Z,11.55
2023-03-03T09:23:29.915Z,14.43
2023-03-03T09:26:17.610Z,13.98
2023-03-03T09:28:45.086Z,16.52
2023-03-03T09:31:47.834Z,10.60
2023-03-03T09:34:36.778Z,8.63
2023-03-03T09:37:19.874Z,9.18
2023-03-03T09:39:53.149Z,9.63
2023-03-03T09:42:32.449Z,12.57
2023-03-03T09:45:12.280Z,9.52
2023-03-03T09:48:09.908Z,10.48
2023-03-03T09:50:37.297Z,9.82
2023-03-03T09:53:23.203Z,12.00
2023-03-03T09:56:07.654Z,11.13
2023-03-03T09:58:45.693Z,9.55
2023-03-03T10:01:55.325Z,8.32
2023-03-03T10:04:59.799Z,11.40
2023-03-03T10:08:04.222Z,5.75
2023-03-03T10:11:01.048Z,8.73
2023-03-03T10:13:51.691Z,10.85
2023-03-03T10:16:38.669Z,11.13
2023-03-03T10:19:37.628Z,9.05
2023-03-03T10:22:33.323Z,8.65
2023-03-03T10:25:24.637Z,12.23
2023-03-03T10:28:18.327Z,6.22
2023-03-03T10:31:29.088Z,12.25
2023-03-03T10:34:22.458Z,8.63
2023-03-03T10:37:09.227Z,12.45
2023-03-03T10:40:01.969Z,8.38
2023-03-03T10:42:32.490Z,7.82
2023-03-03T10:45:14.863Z,9.57
2023-03-03T10:48:19.242Z,8.15
2023-03-03T10:51:05.249Z,4.72
2023-03-03T10:53:47.752Z,9.63
2023-03-03T10:56:52.129Z,9.50
2023-03-03T11:00:00.071Z,8.25
2023-03-03T11:02:58.837Z,6.55
2023-03-03T11:05:39.452Z,7.53
2023-03-03T11:08:17.311Z,5.32
2023-03-03T11:10:54.982Z,10.43
2023-03-03T11:13:37.889Z,8.65
2023-03-03T11:16:19.961Z,11.35
2023-03-03T11:19:30.797Z,10.70
2023-03-03T11:22:25.786Z,5.90
2023-03-03T11:25:16.969Z,8.65
2023-03-03T11:30:48.983Z,9.18
2023-03-03T11:33:26.747Z,6.10
2023-03-03T11:36:12.102Z,6.15
2023-03-03T11:38:58.866Z,5.13
2023-03-03T11:41:34.770Z,10.27
2023-03-03T11:44:23.003Z,7.07
2023-03-03T11:47:14.415Z,8.20
2023-03-03T11:49:55.147Z,6.15
2023-03-03T11:52:41.856Z,12.48
2023-03-03T11:55:27.399Z,6.40
2023-03-03T11:58:11.327Z,9.55
2023-03-03T12:00:48.607Z,6.97
2023-03-03T12:03:27.918Z,3.55
2023-03-03T12:06:30.428Z,4.35
2023-03-03T12:09:06.722Z,4.93
2023-03-03T12:11:40.224Z,3.58
2023-03-03T12:14:17.982Z,6.05
2023-03-03T12:17:11.633Z,9.30
2023-03-03T12:20:09.792Z,16.35
2023-03-03T12:23:07.627Z,8.43
2023-03-03T12:25:47.424Z,4.22
2023-03-03T12:28:34.169Z,5.80
2023-03-03T12:31:09.238Z,6.30
2023-03-03T12:33:42.501Z,9.73
2023-03-03T12:36:21.866Z,4.00
2023-03-03T12:39:13.547Z,4.95
2023-03-03T12:41:52.568Z,5.05
2023-03-03T12:44:35.138Z,4.20
2023-03-03T12:47:13.896Z,5.50
2023-03-03T12:50:06.745Z,7.00
2023-03-03T12:52:59.392Z,3.42
2023-03-03T12:55:50.979Z,1.35
2023-03-03T12:58:25.642Z,4.32
2023-03-03T13:01:13.524Z,6.63
2023-03-03T13:04:02.977Z,3.08
2023-03-03T13:06:34.847Z,6.00
2023-03-03T13:09:13.503Z,6.78
2023-03-03T13:12:08.684Z,5.50
2023-03-03T13:14:49.766Z,12.40
2023-03-03T13:20:01.198Z,6.10
2023-03-03T13:22:46.777Z,8.40
2023-03-03T13:25:34.280Z,5.18
2023-03-03T13:28:31.230Z,3.45
2023-03-03T13:31:07.201Z,4.00
2023-03-03T13:33:36.185Z,4.90
2023-03-03T13:36:12.737Z,5.43
2023-03-03T13:38:48.786Z,3.05
2023-03-03T13:41:49.964Z,4.18
2023-03-03T13:47:19.294Z,3.17
2023-03-03T13:50:08.875Z,2.83
2023-03-03T13:52:50.414Z,3.42
2023-03-03T13:55:20.530Z,2.08
2023-03-03T14:01:06.499Z,4.03
2023-03-03T14:03:49.519Z,7.90
2023-03-03T14:06:24.108Z,2.08
2023-03-03T14:09:00.480Z,3.97
2023-03-03T14:11:48.889Z,3.70
2023-03-03T14:14:48.310Z,5.55
2023-03-03T14:17:55.404Z,8.80
2023-03-03T14:20:31.951Z,5.85
2023-03-03T14:23:25.274Z,8.60
2023-03-03T14:26:04.680Z,5.38
2023-03-03T14:29:13.833Z,4.00
2023-03-03T14:31:43.776Z,4.70
2023-03-03T14:34:23.664Z,4.10
2023-03-03T14:36:57.538Z,5.97
2023-03-03T14:39:28.007Z,4.78
2023-03-03T14:41:57.450Z,5.20
2023-03-03T14:44:36.970Z,5.35
2023-03-03T14:47:16.488Z,2.72
2023-03-03T14:49:44.015Z,5.53
2023-03-03T14:52:17.896Z,5.55
2023-03-03T14:54:48.064Z,6.97
2023-03-03T14:57:20.224Z,5.28
2023-03-03T15:00:01.146Z,4.93
2023-03-03T15:05:34.889Z,6.50
2023-03-03T15:08:05.408Z,5.78
2023-03-03T15:10:45.915Z,8.80
2023-03-03T15:13:22.317Z,8.02
2023-03-03T15:15:53.427Z,13.88
2023-03-03T15:18:20.991Z,3.15
2023-03-03T15:21:18.814Z,3.97
2023-03-03T15:24:14.644Z,2.40
2023-03-03T15:27:01.179Z,4.18
2023-03-03T15:29:55.444Z,3.67
2023-03-03T15:32:32.166Z,2.17
2023-03-03T15:35:21.518Z,4.00
2023-03-03T15:38:30.945Z,9.85
2023-03-03T15:41:23.566Z,3.85
2023-03-03T15:44:12.223Z,4.15
2023-03-03T15:47:14.193Z,4.63
2023-03-03T15:50:06.060Z,6.47
2023-03-03T15:52:40.151Z,7.50
2023-03-03T15:55:32.384Z,3.75
2023-03-03T15:58:30.746Z,2.83
2023-03-03T16:01:17.246Z,4.50
2023-03-03T16:03:49.674Z,3.53
2023-03-03T16:06:28.523Z,2.97
2023-03-03T16:08:58.983Z,5.45
2023-03-03T16:11:49.721Z,5.90
2023-03-03T16:14:19.989Z,1.35
2023-03-03T16:16:59.314Z,1.20
2023-03-03T16:19:55.584Z,2.83
2023-03-03T16:22:31.811Z,3.90
2023-03-03T16:25:36.531Z,5.63
2023-03-03T16:28:16.368Z,3.67
2023-03-03T16:31:06.557Z,5.40
2023-03-03T16:33:49.209Z,6.87
2023-03-03T16:36:42.927Z,4.07
2023-03-03T16:39:42.735Z,3.33
2023-03-03T16:42:31.325Z,1.60
2023-03-03T16:45:21.121Z,4.97
2023-03-03T16:47:57.386Z,2.72
2023-03-03T16:50:53.004Z,2.78
2023-03-03T16:53:56.243Z,4.35
2023-03-03T16:56:38.075Z,4.00
2023-03-03T16:59:38.354Z,3.15
2023-03-03T17:02:57.243Z,6.77
2023-03-03T17:05:58.002Z,3.95
2023-03-03T17:08:44.082Z,7.53
2023-03-03T17:11:30.678Z,4.00
2023-03-03T17:14:16.972Z,3.85
2023-03-03T17:17:35.308Z,8.82
2023-03-03T17:20:29.232Z,4.07
2023-03-03T17:23:24.355Z,5.00
2023-03-03T17:26:22.302Z,8.50
2023-03-03T17:29:07.369Z,3.65
2023-03-03T17:31:59.214Z,3.63
2023-03-03T17:34:52.966Z,4.45
2023-03-03T17:37:59.007Z,7.72
2023-03-03T17:40:48.567Z,5.72
2023-03-03T17:43:34.012Z,2.83
2023-03-03T17:46:04.610Z,6.25
2023-03-03T17:48:40.856Z,7.25
2023-03-03T17:51:32.522Z,4.55
2023-03-03T17:54:38.568Z,6.97
2023-03-03T17:57:24.640Z,5.15
2023-03-03T18:00:24.913Z,4.40
2023-03-03T18:03:08.137Z,4.38
2023-03-03T18:05:55.598Z,5.93
2023-03-03T18:08:49.615Z,5.88
2023-03-03T18:11:59.790Z,4.55
2023-03-03T18:14:46.645Z,5.43
2023-03-03T18:17:48.366Z,5.68
2023-03-03T18:20:56.399Z,8.10
2023-03-03T18:23:41.764Z,5.78
2023-03-03T18:26:41.480Z,6.25
2023-03-03T18:29:18.038Z,6.85
2023-03-03T18:31:48.485Z,8.57
2023-03-03T18:34:21.855Z,7.15
2023-03-03T18:37:01.094Z,6.47
2023-03-03T18:39:38.679Z,6.75
2023-03-03T18:42:27.366Z,8.35
2023-03-03T18:44:54.744Z,6.22
2023-03-03T18:48:00.665Z,10.13
2023-03-03T18:50:35.462Z,13.05
2023-03-03T18:53:30.469Z,19.23
2023-03-03T18:56:00.209Z,41.03
2023-03-03T18:58:41.681Z,24.67
2023-03-03T19:01:12.092Z,41.28
2023-03-03T19:03:47.995Z,44.60
2023-03-03T19:06:38.313Z,32.90
2023-03-03T19:09:06.965Z,19.33
2023-03-03T19:11:41.056Z,19.23
2023-03-03T19:14:30.758Z,18.30
2023-03-03T19:17:18.416Z,22.02
2023-03-03T19:20:03.323Z,14.82
2023-03-03T19:22:31.277Z,10.57
2023-03-03T19:25:06.106Z,10.05
2023-03-03T19:27:42.797Z,16.42
2023-03-03T19:30:36.423Z,22.48
2023-03-03T19:33:06.811Z,11.40
2023-03-03T19:35:58.889Z,14.95
2023-03-03T19:38:35.351Z,8.70
2023-03-03T19:41:26.305Z,6.63
2023-03-03T19:44:24.015Z,5.53
2023-03-03T19:47:04.591Z,10.48
2023-03-03T19:49:51.210Z,7.22
2023-03-03T19:52:29.919Z,7.90
2023-03-03T19:55:00.545Z,6.45
2023-03-03T19:57:49.218Z,5.85
2023-03-03T20:00:44.210Z,15.38
2023-03-03T20:03:30.524Z,7.97
2023-03-03T20:06:20.594Z,8.32
2023-03-03T20:09:00.955Z,6.37
2023-03-03T20:11:46.298Z,6.40
2023-03-03T20:14:32.838Z,6.75
2023-03-03T20:17:30.669Z,10.07
2023-03-03T20:20:04.190Z,9.23
2023-03-03T20:23:05.220Z,15.68
2023-03-03T20:28:38.387Z,13.27
2023-03-03T20:31:37.362Z,5.75
2023-03-03T20:34:23.462Z,8.32
2023-03-03T20:37:09.432Z,12.35
2023-03-03T20:40:11.217Z,9.00
2023-03-03T20:42:57.603Z,9.52
2023-03-03T20:46:14.887Z,10.25
2023-03-03T20:49:07.286Z,7.65
2023-03-03T20:51:46.769Z,21.92
2023-03-03T20:54:29.790Z,11.27
2023-03-03T20:57:14.588Z,9.85
2023-03-03T20:59:48.378Z,12.80
2023-03-03T21:02:38.473Z,7.38
2023-03-03T21:05:14.912Z,11.25
2023-03-03T21:08:01.201Z,14.68
2023-03-03T21:10:35.539Z,13.65
2023-03-03T21:13:34.095Z,10.63
2023-03-03T21:16:06.105Z,10.23
2023-03-03T21:18:33.753Z,14.73
2023-03-03T21:21:01.568Z,7.93
2023-03-03T21:23:29.107Z,11.20
2023-03-03T21:25:57.970Z,11.30
2023-03-03T21:28:30.829Z,10.25
2023-03-03T21:31:06.103Z,15.00
2023-03-03T21:33:54.271Z,15.80
2023-03-03T21:36:23.639Z,11.63
2023-03-03T21:38:54.393Z,13.18
2023-03-03T21:41:22.016Z,16.27
2023-03-03T21:43:51.909Z,15.48
2023-03-03T21:46:24.391Z,14.50
2023-03-03T21:48:52.546Z,17.27
2023-03-03T21:51:21.362Z,24.25
2023-03-03T21:53:48.887Z,20.75
2023-03-03T21:56:16.345Z,9.90
2023-03-03T21:58:44.133Z,20.30
2023-03-03T22:01:11.837Z,15.98
2023-03-03T22:03:39.387Z,19.05
2023-03-03T22:06:07.081Z,14.68
2023-03-03T22:08:34.581Z,16.98
2023-03-03T22:11:02.067Z,16.42
2023-03-03T22:13:29.520Z,10.80
2023-03-03T22:15:57.593Z,20.30
2023-03-03T22:18:25.184Z,16.35
2023-03-03T22:20:52.664Z,23.83
2023-03-03T22:23:20.201Z,18.40
2023-03-03T22:25:48.053Z,13.93
2023-03-03T22:28:15.510Z,18.98
2023-03-03T22:30:43.559Z,19.02
2023-03-03T22:33:11.052Z,19.70
2023-03-03T22:35:38.785Z,16.88
2023-03-03T22:38:06.421Z,16.85
2023-03-03T22:40:33.828Z,14.60
2023-03-03T22:43:01.387Z,18.33
2023-03-03T22:45:29.085Z,16.52
2023-03-03T22:47:56.457Z,14.75
2023-03-03T22:50:24.016Z,15.13
2023-03-03T22:52:51.536Z,17.88
2023-03-03T22:55:19.049Z,10.98
2023-03-03T22:57:46.528Z,13.30
2023-03-03T23:00:15.995Z,14.15
2023-03-03T23:02:43.434Z,12.60
2023-03-03T23:05:11.455Z,13.40
2023-03-03T23:07:40.950Z,12.98
2023-03-03T23:10:09.327Z,20.83
2023-03-03T23:12:36.926Z,13.18
2023-03-03T23:15:13.157Z,16.60
2023-03-03T23:17:44.558Z,15.93
2023-03-03T23:20:17.628Z,14.82
2023-03-03T23:22:45.045Z,16.02
2023-03-03T23:25:13.881Z,14.75
2023-03-03T23:27:42.677Z,12.82
2023-03-03T23:30:12.490Z,16.55
2023-03-03T23:32:40.219Z,15.43
2023-03-03T23:35:08.536Z,13.05
2023-03-03T23:37:36.509Z,15.40
2023-03-03T23:40:04.888Z,16.48
2023-03-03T23:42:32.487Z,14.10
2023-03-03T23:45:00.012Z,17.35
2023-03-03T23:47:27.643Z,13.55
2023-03-03T23:49:55.315Z,22.58
2023-03-03T23:52:22.839Z,14.73
2023-03-03T23:54:50.351Z,20.02
2023-03-03T23:57:17.786Z,15.73
2023-03-03T23:59:45.283Z,17.10
